sensor_id;sensor_type;location;lat;lon;timestamp;pressure;altitude;pressure_sealevel;temperature;humidity
76627;BME280;65519;53.230;10.390;2024-03-22T00:00:41;101618.41;;;8.18;100.00
76627;BME280;65519;53.230;10.390;2024-03-22T00:03:06;101622.78;;;8.19;100.00
76627;BME280;65519;53.230;10.390;2024-03-22T00:05:32;101611.31;;;8.17;100.00
76627;BME280;65519;53.230;10.390;2024-03-22T00:07:57;101600.22;;;8.18;100.00
76627;BME280;65519;53.230;10.390;2024-03-22T00:10:23;101597.75;;;8.17;100.00
76627;BME280;65519;53.230;10.390;2024-03-22T00:12:51;101592.31;;;8.17;100.00
76627;BME280;65519;53.230;10.390;2024-03-22T00:15:17;101591.25;;;8.18;100.00
76627;BME280;65519;53.230;10.390;2024-03-22T00:17:44;101577.22;;;8.21;100.00
76627;BME280;65519;53.230;10.390;2024-03-22T00:20:10;101578.50;;;8.18;100.00
76627;BME280;65519;53.230;10.390;2024-03-22T00:22:35;101582.16;;;8.24;100.00
76627;BME280;65519;53.230;10.390;2024-03-22T00:25:01;101578.88;;;8.22;100.00
76627;BME280;65519;53.230;10.390;2024-03-22T00:27:26;101573.91;;;8.19;100.00
76627;BME280;65519;53.230;10.390;2024-03-22T00:29:52;101574.25;;;8.22;100.00
76627;BME280;65519;53.230;10.390;2024-03-22T00:32:17;101572.00;;;8.19;100.00
76627;BME280;65519;53.230;10.390;2024-03-22T00:34:42;101572.63;;;8.21;100.00
76627;BME280;65519;53.230;10.390;2024-03-22T00:37:09;101569.66;;;8.23;100.00
76627;BME280;65519;53.230;10.390;2024-03-22T00:39:34;101565.88;;;8.24;100.00
76627;BME280;65519;53.230;10.390;2024-03-22T00:42:00;101562.59;;;8.22;100.00
76627;BME280;65519;53.230;10.390;2024-03-22T00:44:26;101552.50;;;8.22;100.00
76627;BME280;65519;53.230;10.390;2024-03-22T00:46:51;101543.09;;;8.25;100.00
76627;BME280;65519;53.230;10.390;2024-03-22T00:49:17;101528.44;;;8.26;100.00
76627;BME280;65519;53.230;10.390;2024-03-22T00:51:42;101520.91;;;8.28;100.00
76627;BME280;65519;53.230;10.390;2024-03-22T00:54:09;101523.84;;;8.26;100.00
76627;BME280;65519;53.230;10.390;2024-03-22T00:56:34;101520.28;;;8.26;100.00
76627;BME280;65519;53.230;10.390;2024-03-22T00:59:00;101519.47;;;8.25;100.00
76627;BME280;65519;53.230;10.390;2024-03-22T01:01:25;101530.09;;;8.27;100.00
76627;BME280;65519;53.230;10.390;2024-03-22T01:03:51;101532.16;;;8.31;100.00
76627;BME280;65519;53.230;10.390;2024-03-22T01:06:16;101533.56;;;8.34;100.00
76627;BME280;65519;53.230;10.390;2024-03-22T01:08:47;101534.03;;;8.31;100.00
76627;BME280;65519;53.230;10.390;2024-03-22T01:11:13;101531.09;;;8.32;100.00
76627;BME280;65519;53.230;10.390;2024-03-22T01:13:38;101533.56;;;8.34;100.00
76627;BME280;65519;53.230;10.390;2024-03-22T01:16:04;101528.97;;;8.34;100.00
76627;BME280;65519;53.230;10.390;2024-03-22T01:18:30;101522.69;;;8.34;100.00
76627;BME280;65519;53.230;10.390;2024-03-22T01:20:55;101512.66;;;8.34;100.00
76627;BME280;65519;53.230;10.390;2024-03-22T01:23:20;101511.00;;;8.33;100.00
76627;BME280;65519;53.230;10.390;2024-03-22T01:25:46;101511.13;;;8.38;100.00
76627;BME280;65519;53.230;10.390;2024-03-22T01:28:11;101504.28;;;8.36;100.00
76627;BME280;65519;53.230;10.390;2024-03-22T01:30:37;101499.91;;;8.35;100.00
76627;BME280;65519;53.230;10.390;2024-03-22T01:33:02;101494.00;;;8.38;100.00
76627;BME280;65519;53.230;10.390;2024-03-22T01:35:28;101475.94;;;8.32;100.00
76627;BME280;65519;53.230;10.390;2024-03-22T01:37:53;101472.13;;;8.33;100.00
76627;BME280;65519;53.230;10.390;2024-03-22T01:40:19;101478.16;;;8.35;100.00
76627;BME280;65519;53.230;10.390;2024-03-22T01:42:44;101470.84;;;8.35;100.00
76627;BME280;65519;53.230;10.390;2024-03-22T01:45:11;101475.44;;;8.35;100.00
76627;BME280;65519;53.230;10.390;2024-03-22T01:47:39;101470.03;;;8.35;100.00
76627;BME280;65519;53.230;10.390;2024-03-22T01:50:05;101467.91;;;8.37;100.00
76627;BME280;65519;53.230;10.390;2024-03-22T01:52:31;101467.91;;;8.37;100.00
76627;BME280;65519;53.230;10.390;2024-03-22T01:54:57;101452.66;;;8.36;100.00
76627;BME280;65519;53.230;10.390;2024-03-22T01:57:26;101440.13;;;8.35;100.00
76627;BME280;65519;53.230;10.390;2024-03-22T01:59:53;101432.00;;;8.35;100.00
76627;BME280;65519;53.230;10.390;2024-03-22T02:02:20;101416.75;;;8.34;100.00
76627;BME280;65519;53.230;10.390;2024-03-22T02:04:50;101429.97;;;8.30;100.00
76627;BME280;65519;53.230;10.390;2024-03-22T02:07:15;101414.03;;;8.34;100.00
76627;BME280;65519;53.230;10.390;2024-03-22T02:09:41;101403.44;;;8.32;100.00
76627;BME280;65519;53.230;10.390;2024-03-22T02:12:06;101402.59;;;8.32;100.00
76627;BME280;65519;53.230;10.390;2024-03-22T02:14:32;101406.16;;;8.32;100.00
76627;BME280;65519;53.230;10.390;2024-03-22T02:16:57;101402.81;;;8.30;100.00
76627;BME280;65519;53.230;10.390;2024-03-22T02:19:23;101399.88;;;8.32;100.00
76627;BME280;65519;53.230;10.390;2024-03-22T02:21:48;101384.97;;;8.34;100.00
76627;BME280;65519;53.230;10.390;2024-03-22T02:24:14;101367.63;;;8.35;100.00
76627;BME280;65519;53.230;10.390;2024-03-22T02:26:39;101366.19;;;8.33;100.00
76627;BME280;65519;53.230;10.390;2024-03-22T02:29:04;101363.47;;;8.33;100.00
76627;BME280;65519;53.230;10.390;2024-03-22T02:31:30;101359.69;;;8.34;100.00
76627;BME280;65519;53.230;10.390;2024-03-22T02:33:57;101351.31;;;8.35;100.00
76627;BME280;65519;53.230;10.390;2024-03-22T02:36:23;101350.25;;;8.36;100.00
76627;BME280;65519;53.230;10.390;2024-03-22T02:38:48;101343.75;;;8.37;100.00
76627;BME280;65519;53.230;10.390;2024-03-22T02:41:14;101340.81;;;8.39;100.00
76627;BME280;65519;53.230;10.390;2024-03-22T02:43:39;101331.97;;;8.44;100.00
76627;BME280;65519;53.230;10.390;2024-03-22T02:46:05;101329.72;;;8.40;100.00
76627;BME280;65519;53.230;10.390;2024-03-22T02:48:30;101327.00;;;8.40;100.00
76627;BME280;65519;53.230;10.390;2024-03-22T02:50:57;101333.84;;;8.43;100.00
76627;BME280;65519;53.230;10.390;2024-03-22T02:53:23;101331.13;;;8.43;100.00
76627;BME280;65519;53.230;10.390;2024-03-22T02:55:48;101325.69;;;8.43;100.00
76627;BME280;65519;53.230;10.390;2024-03-22T02:58:14;101330.16;;;8.49;100.00
76627;BME280;65519;53.230;10.390;2024-03-22T03:00:39;101330.63;;;8.46;100.00
76627;BME280;65519;53.230;10.390;2024-03-22T03:03:05;101332.41;;;8.52;100.00
76627;BME280;65519;53.230;10.390;2024-03-22T03:05:31;101334.06;;;8.53;100.00
76627;BME280;65519;53.230;10.390;2024-03-22T03:07:57;101336.50;;;8.55;100.00
76627;BME280;65519;53.230;10.390;2024-03-22T03:10:22;101333.56;;;8.56;100.00
76627;BME280;65519;53.230;10.390;2024-03-22T03:12:48;101332.84;;;8.61;100.00
76627;BME280;65519;53.230;10.390;2024-03-22T03:15:13;101340.78;;;8.62;100.00
76627;BME280;65519;53.230;10.390;2024-03-22T03:17:38;101328.47;;;8.60;100.00
76627;BME280;65519;53.230;10.390;2024-03-22T03:20:04;101332.03;;;8.60;100.00
76627;BME280;65519;53.230;10.390;2024-03-22T03:22:35;101333.22;;;8.64;100.00
76627;BME280;65519;53.230;10.390;2024-03-22T03:25:03;101320.31;;;8.60;100.00
76627;BME280;65519;53.230;10.390;2024-03-22T03:27:29;101325.28;;;8.63;100.00
76627;BME280;65519;53.230;10.390;2024-03-22T03:29:54;101332.63;;;8.62;100.00
76627;BME280;65519;53.230;10.390;2024-03-22T03:32:20;101318.88;;;8.69;100.00
76627;BME280;65519;53.230;10.390;2024-03-22T03:34:45;101317.47;;;8.66;100.00
76627;BME280;65519;53.230;10.390;2024-03-22T03:37:11;101310.47;;;8.70;100.00
76627;BME280;65519;53.230;10.390;2024-03-22T03:39:36;101306.34;;;8.68;100.00
76627;BME280;65519;53.230;10.390;2024-03-22T03:42:02;101305.06;;;8.70;100.00
76627;BME280;65519;53.230;10.390;2024-03-22T03:44:27;101295.25;;;8.69;100.00
76627;BME280;65519;53.230;10.390;2024-03-22T03:46:52;101296.31;;;8.68;100.00
76627;BME280;65519;53.230;10.390;2024-03-22T03:49:18;101297.97;;;8.69;100.00
76627;BME280;65519;53.230;10.390;2024-03-22T03:51:43;101299.72;;;8.75;100.00
76627;BME280;65519;53.230;10.390;2024-03-22T03:54:09;101290.16;;;8.73;100.00
76627;BME280;65519;53.230;10.390;2024-03-22T03:56:34;101277.63;;;8.72;100.00
76627;BME280;65519;53.230;10.390;2024-03-22T03:59:00;101275.75;;;8.72;100.00
76627;BME280;65519;53.230;10.390;2024-03-22T04:01:25;101276.56;;;8.73;100.00
76627;BME280;65519;53.230;10.390;2024-03-22T04:03:50;101277.72;;;8.77;100.00
76627;BME280;65519;53.230;10.390;2024-03-22T04:06:16;101280.19;;;8.78;100.00
76627;BME280;65519;53.230;10.390;2024-03-22T04:08:42;101276.41;;;8.79;100.00
76627;BME280;65519;53.230;10.390;2024-03-22T04:11:08;101269.31;;;8.78;100.00
76627;BME280;65519;53.230;10.390;2024-03-22T04:13:34;101267.19;;;8.81;100.00
76627;BME280;65519;53.230;10.390;2024-03-22T04:15:59;101268.94;;;8.87;100.00
76627;BME280;65519;53.230;10.390;2024-03-22T04:18:25;101268.38;;;8.85;100.00
76627;BME280;65519;53.230;10.390;2024-03-22T04:20:54;101254.84;;;8.90;100.00
76627;BME280;65519;53.230;10.390;2024-03-22T04:23:20;101248.34;;;8.91;100.00
76627;BME280;65519;53.230;10.390;2024-03-22T04:26:04;101247.28;;;8.92;100.00
76627;BME280;65519;53.230;10.390;2024-03-22T04:28:29;101246.69;;;8.90;100.00
76627;BME280;65519;53.230;10.390;2024-03-22T04:31:03;101241.25;;;8.90;100.00
76627;BME280;65519;53.230;10.390;2024-03-22T04:33:30;101238.06;;;8.93;100.00
76627;BME280;65519;53.230;10.390;2024-03-22T04:35:57;101240.53;;;8.94;100.00
76627;BME280;65519;53.230;10.390;2024-03-22T04:38:23;101235.91;;;8.95;100.00
76627;BME280;65519;53.230;10.390;2024-03-22T04:40:49;101222.31;;;8.95;100.00
76627;BME280;65519;53.230;10.390;2024-03-22T04:43:15;101219.59;;;8.95;100.00
76627;BME280;65519;53.230;10.390;2024-03-22T04:45:42;101212.50;;;8.94;100.00
76627;BME280;65519;53.230;10.390;2024-03-22T04:48:08;101215.56;;;8.97;100.00
76627;BME280;65519;53.230;10.390;2024-03-22T04:50:34;101197.34;;;8.98;100.00
76627;BME280;65519;53.230;10.390;2024-03-22T04:52:59;101193.81;;;8.97;100.00
76627;BME280;65519;53.230;10.390;2024-03-22T04:55:24;101186.47;;;8.98;100.00
76627;BME280;65519;53.230;10.390;2024-03-22T04:57:51;101183.19;;;8.96;100.00
76627;BME280;65519;53.230;10.390;2024-03-22T05:00:17;101184.84;;;8.97;100.00
76627;BME280;65519;53.230;10.390;2024-03-22T05:02:43;101183.19;;;8.96;100.00
76627;BME280;65519;53.230;10.390;2024-03-22T05:05:09;101178.56;;;8.96;100.00
76627;BME280;65519;53.230;10.390;2024-03-22T05:07:35;101178.06;;;8.99;100.00
76627;BME280;65519;53.230;10.390;2024-03-22T05:10:01;101181.31;;;8.96;100.00
76627;BME280;65519;53.230;10.390;2024-03-22T05:12:26;101171.25;;;8.97;100.00
76627;BME280;65519;53.230;10.390;2024-03-22T05:14:52;101173.97;;;8.97;100.00
76627;BME280;65519;53.230;10.390;2024-03-22T05:17:17;101163.09;;;8.97;100.00
76627;BME280;65519;53.230;10.390;2024-03-22T05:19:43;101161.44;;;8.96;100.00
76627;BME280;65519;53.230;10.390;2024-03-22T05:22:08;101158.78;;;9.01;100.00
76627;BME280;65519;53.230;10.390;2024-03-22T05:24:34;101153.25;;;9.12;100.00
76627;BME280;65519;53.230;10.390;2024-03-22T05:26:59;101144.88;;;9.14;100.00
76627;BME280;65519;53.230;10.390;2024-03-22T05:29:25;101152.53;;;9.17;100.00
76627;BME280;65519;53.230;10.390;2024-03-22T05:31:51;101152.59;;;9.22;100.00
76627;BME280;65519;53.230;10.390;2024-03-22T05:34:17;101138.16;;;9.22;100.00
76627;BME280;65519;53.230;10.390;2024-03-22T05:36:43;101138.50;;;9.25;100.00
76627;BME280;65519;53.230;10.390;2024-03-22T05:39:09;101130.09;;;9.10;100.00
76627;BME280;65519;53.230;10.390;2024-03-22T05:41:40;101138.84;;;9.12;100.00
76627;BME280;65519;53.230;10.390;2024-03-22T05:44:06;101138.78;;;9.07;100.00
76627;BME280;65519;53.230;10.390;2024-03-22T05:46:31;101138.53;;;9.08;100.00
76627;BME280;65519;53.230;10.390;2024-03-22T05:48:59;101139.59;;;9.07;100.00
76627;BME280;65519;53.230;10.390;2024-03-22T05:51:25;101146.69;;;9.08;100.00
76627;BME280;65519;53.230;10.390;2024-03-22T05:53:51;101137.72;;;9.08;100.00
76627;BME280;65519;53.230;10.390;2024-03-22T05:56:17;101138.53;;;9.08;100.00
76627;BME280;65519;53.230;10.390;2024-03-22T05:58:42;101130.38;;;9.08;100.00
76627;BME280;65519;53.230;10.390;2024-03-22T06:01:08;101136.13;;;9.12;100.00
76627;BME280;65519;53.230;10.390;2024-03-22T06:03:33;101141.31;;;9.13;100.00
76627;BME280;65519;53.230;10.390;2024-03-22T06:06:00;101132.56;;;9.11;100.00
76627;BME280;65519;53.230;10.390;2024-03-22T06:08:26;101144.38;;;9.17;100.00
76627;BME280;65519;53.230;10.390;2024-03-22T06:10:52;101135.19;;;9.23;100.00
76627;BME280;65519;53.230;10.390;2024-03-22T06:13:18;101145.25;;;9.23;100.00
76627;BME280;65519;53.230;10.390;2024-03-22T06:15:44;101146.41;;;9.27;100.00
76627;BME280;65519;53.230;10.390;2024-03-22T06:18:12;101143.47;;;9.28;100.00
76627;BME280;65519;53.230;10.390;2024-03-22T06:20:37;101142.38;;;9.29;100.00
76627;BME280;65519;53.230;10.390;2024-03-22T06:23:03;101143.22;;;9.30;100.00
76627;BME280;65519;53.230;10.390;2024-03-22T06:25:29;101141.03;;;9.32;100.00
76627;BME280;65519;53.230;10.390;2024-03-22T06:27:54;101140.31;;;9.36;100.00
76627;BME280;65519;53.230;10.390;2024-03-22T06:30:20;101121.84;;;9.38;100.00
76627;BME280;65519;53.230;10.390;2024-03-22T06:32:45;101123.16;;;9.36;100.00
76627;BME280;65519;53.230;10.390;2024-03-22T06:35:11;101119.34;;;9.37;100.00
76627;BME280;65519;53.230;10.390;2024-03-22T06:37:38;101118.53;;;9.36;100.00
76627;BME280;65519;53.230;10.390;2024-03-22T06:40:04;101116.97;;;9.40;100.00
76627;BME280;65519;53.230;10.390;2024-03-22T06:42:30;101116.44;;;9.43;100.00
76627;BME280;65519;53.230;10.390;2024-03-22T06:44:55;101113.47;;;9.45;100.00
76627;BME280;65519;53.230;10.390;2024-03-22T06:47:21;101100.69;;;9.45;100.00
76627;BME280;65519;53.230;10.390;2024-03-22T06:49:47;101103.75;;;9.49;100.00
76627;BME280;65519;53.230;10.390;2024-03-22T06:52:12;101108.41;;;9.53;100.00
76627;BME280;65519;53.230;10.390;2024-03-22T06:54:38;101109.50;;;9.52;100.00
76627;BME280;65519;53.230;10.390;2024-03-22T06:57:03;101100.09;;;9.60;100.00
76627;BME280;65519;53.230;10.390;2024-03-22T06:59:29;101095.47;;;9.61;100.00
76627;BME280;65519;53.230;10.390;2024-03-22T07:01:54;101087.59;;;9.64;100.00
76627;BME280;65519;53.230;10.390;2024-03-22T07:04:19;101081.91;;;9.66;100.00
76627;BME280;65519;53.230;10.390;2024-03-22T07:06:45;101080.34;;;9.70;100.00
76627;BME280;65519;53.230;10.390;2024-03-22T07:09:10;101070.56;;;9.74;100.00
76627;BME280;65519;53.230;10.390;2024-03-22T07:11:36;101070.56;;;9.74;100.00
76627;BME280;65519;53.230;10.390;2024-03-22T07:14:02;101077.13;;;9.73;100.00
76627;BME280;65519;53.230;10.390;2024-03-22T07:16:27;101067.59;;;9.75;100.00
76627;BME280;65519;53.230;10.390;2024-03-22T07:18:52;101069.06;;;9.83;100.00
76627;BME280;65519;53.230;10.390;2024-03-22T07:21:18;101071.25;;;9.86;100.00
76627;BME280;65519;53.230;10.390;2024-03-22T07:23:43;101058.78;;;9.90;100.00
76627;BME280;65519;53.230;10.390;2024-03-22T07:26:09;101051.44;;;9.91;100.00
76627;BME280;65519;53.230;10.390;2024-03-22T07:28:34;101051.47;;;9.96;100.00
76627;BME280;65519;53.230;10.390;2024-03-22T07:30:59;101049.31;;;9.98;100.00
76627;BME280;65519;53.230;10.390;2024-03-22T07:33:25;101035.41;;;9.94;100.00
76627;BME280;65519;53.230;10.390;2024-03-22T07:35:50;101043.69;;;10.04;100.00
76627;BME280;65519;53.230;10.390;2024-03-22T07:38:19;101042.66;;;10.10;100.00
76627;BME280;65519;53.230;10.390;2024-03-22T07:40:45;101029.28;;;10.09;100.00
76627;BME280;65519;53.230;10.390;2024-03-22T07:43:10;101029.59;;;10.12;100.00
76627;BME280;65519;53.230;10.390;2024-03-22T07:45:37;101040.25;;;10.14;100.00
76627;BME280;65519;53.230;10.390;2024-03-22T07:48:02;101043.78;;;10.14;100.00
76627;BME280;65519;53.230;10.390;2024-03-22T07:50:28;101058.56;;;10.18;100.00
76627;BME280;65519;53.230;10.390;2024-03-22T07:52:53;101050.72;;;10.22;100.00
76627;BME280;65519;53.230;10.390;2024-03-22T07:55:19;101056.41;;;10.20;100.00
76627;BME280;65519;53.230;10.390;2024-03-22T07:57:45;101050.44;;;10.23;100.00
76627;BME280;65519;53.230;10.390;2024-03-22T08:00:11;101055.09;;;10.28;100.00
76627;BME280;65519;53.230;10.390;2024-03-22T08:02:39;101038.16;;;10.21;100.00
76627;BME280;65519;53.230;10.390;2024-03-22T08:05:06;101036.25;;;10.21;100.00
76627;BME280;65519;53.230;10.390;2024-03-22T08:07:32;101047.50;;;10.30;100.00
76627;BME280;65519;53.230;10.390;2024-03-22T08:09:57;101037.44;;;10.31;100.00
76627;BME280;65519;53.230;10.390;2024-03-22T08:12:24;101039.59;;;10.29;100.00
76627;BME280;65519;53.230;10.390;2024-03-22T08:14:50;101039.59;;;10.29;100.00
76627;BME280;65519;53.230;10.390;2024-03-22T08:17:16;101045.09;;;10.34;100.00
76627;BME280;65519;53.230;10.390;2024-03-22T08:19:41;101040.16;;;10.31;100.00
76627;BME280;65519;53.230;10.390;2024-03-22T08:22:07;101028.75;;;10.34;100.00
76627;BME280;65519;53.230;10.390;2024-03-22T08:24:32;101044.03;;;10.35;100.00
76627;BME280;65519;53.230;10.390;2024-03-22T08:26:59;101040.22;;;10.36;100.00
76627;BME280;65519;53.230;10.390;2024-03-22T08:29:24;101035.28;;;10.33;100.00
76627;BME280;65519;53.230;10.390;2024-03-22T08:31:50;101025.13;;;10.28;100.00
76627;BME280;65519;53.230;10.390;2024-03-22T08:34:16;101023.53;;;10.27;100.00
76627;BME280;65519;53.230;10.390;2024-03-22T08:36:41;101030.06;;;10.26;100.00
76627;BME280;65519;53.230;10.390;2024-03-22T08:39:06;101036.81;;;10.23;100.00
76627;BME280;65519;53.230;10.390;2024-03-22T08:41:35;101043.03;;;10.19;100.00
76627;BME280;65519;53.230;10.390;2024-03-22T08:44:00;101035.69;;;10.19;100.00
76627;BME280;65519;53.230;10.390;2024-03-22T08:46:26;101040.00;;;10.15;100.00
76627;BME280;65519;53.230;10.390;2024-03-22T08:48:53;101038.25;;;10.31;100.00
76627;BME280;65519;53.230;10.390;2024-03-22T08:51:19;101032.81;;;10.31;100.00
76627;BME280;65519;53.230;10.390;2024-03-22T08:53:44;101027.03;;;10.28;100.00
76627;BME280;65519;53.230;10.390;2024-03-22T08:56:10;101022.69;;;10.27;100.00
76627;BME280;65519;53.230;10.390;2024-03-22T08:58:36;101019.44;;;10.30;100.00
76627;BME280;65519;53.230;10.390;2024-03-22T09:01:01;101004.97;;;10.24;100.00
76627;BME280;65519;53.230;10.390;2024-03-22T09:03:27;101006.28;;;10.21;100.00
76627;BME280;65519;53.230;10.390;2024-03-22T09:05:53;101006.28;;;10.21;100.00
76627;BME280;65519;53.230;10.390;2024-03-22T09:08:20;101013.38;;;10.22;100.00
76627;BME280;65519;53.230;10.390;2024-03-22T09:10:47;101009.31;;;10.25;100.00
76627;BME280;65519;53.230;10.390;2024-03-22T09:13:12;101004.63;;;10.20;100.00
76627;BME280;65519;53.230;10.390;2024-03-22T09:15:38;101006.28;;;10.21;100.00
76627;BME280;65519;53.230;10.390;2024-03-22T09:18:04;101013.13;;;10.24;100.00
76627;BME280;65519;53.230;10.390;2024-03-22T09:20:30;100999.78;;;10.28;100.00
76627;BME280;65519;53.230;10.390;2024-03-22T09:22:55;100996.00;;;10.29;100.00
76627;BME280;65519;53.230;10.390;2024-03-22T09:25:23;101000.34;;;10.24;100.00
76627;BME280;65519;53.230;10.390;2024-03-22T09:27:49;100997.34;;;10.26;100.00
76627;BME280;65519;53.230;10.390;2024-03-22T09:30:15;100993.53;;;10.27;100.00
76627;BME280;65519;53.230;10.390;2024-03-22T09:32:40;100989.72;;;10.28;100.00
76627;BME280;65519;53.230;10.390;2024-03-22T09:35:06;100986.72;;;10.30;100.00
76627;BME280;65519;53.230;10.390;2024-03-22T09:37:32;100980.22;;;10.31;100.00
76627;BME280;65519;53.230;10.390;2024-03-22T09:39:58;100981.59;;;10.33;100.00
76627;BME280;65519;53.230;10.390;2024-03-22T09:42:25;100971.53;;;10.34;100.00
76627;BME280;65519;53.230;10.390;2024-03-22T09:44:51;100972.03;;;10.31;100.00
76627;BME280;65519;53.230;10.390;2024-03-22T09:47:18;100969.81;;;10.28;100.00
76627;BME280;65519;53.230;10.390;2024-03-22T09:49:46;100961.97;;;10.31;100.00
76627;BME280;65519;53.230;10.390;2024-03-22T09:52:15;100963.59;;;10.32;100.00
76627;BME280;65519;53.230;10.390;2024-03-22T09:54:43;100967.97;;;10.33;100.00
76627;BME280;65519;53.230;10.390;2024-03-22T09:57:19;100967.16;;;10.33;100.00
76627;BME280;65519;53.230;10.390;2024-03-22T09:59:46;100956.00;;;10.34;100.00
76627;BME280;65519;53.230;10.390;2024-03-22T10:02:16;100960.09;;;10.37;100.00
76627;BME280;65519;53.230;10.390;2024-03-22T10:04:43;100955.75;;;10.41;100.00
76627;BME280;65519;53.230;10.390;2024-03-22T10:07:09;100951.69;;;10.43;100.00
76627;BME280;65519;53.230;10.390;2024-03-22T10:09:36;100949.28;;;10.47;100.00
76627;BME280;65519;53.230;10.390;2024-03-22T10:12:01;100948.47;;;10.51;100.00
76627;BME280;65519;53.230;10.390;2024-03-22T10:14:28;100948.72;;;10.50;100.00
76627;BME280;65519;53.230;10.390;2024-03-22T10:16:54;100941.69;;;10.54;100.00
76627;BME280;65519;53.230;10.390;2024-03-22T10:19:20;100934.06;;;10.56;100.00
76627;BME280;65519;53.230;10.390;2024-03-22T10:21:47;100922.59;;;10.54;100.00
76627;BME280;65519;53.230;10.390;2024-03-22T10:24:14;100924.25;;;10.55;100.00
76627;BME280;65519;53.230;10.390;2024-03-22T10:26:39;100924.75;;;10.52;100.00
76627;BME280;65519;53.230;10.390;2024-03-22T10:29:08;100919.63;;;10.55;100.00
76627;BME280;65519;53.230;10.390;2024-03-22T10:31:35;100916.63;;;10.57;100.00
76627;BME280;65519;53.230;10.390;2024-03-22T10:34:02;100925.06;;;10.55;100.00
76627;BME280;65519;53.230;10.390;2024-03-22T10:36:29;100915.28;;;10.59;100.00
76627;BME280;65519;53.230;10.390;2024-03-22T10:38:57;100921.00;;;10.63;100.00
76627;BME280;65519;53.230;10.390;2024-03-22T10:41:24;100921.00;;;10.63;100.00
76627;BME280;65519;53.230;10.390;2024-03-22T10:43:50;100925.66;;;10.63;100.00
76627;BME280;65519;53.230;10.390;2024-03-22T10:46:20;100915.03;;;10.66;100.00
76627;BME280;65519;53.230;10.390;2024-03-22T10:48:46;100922.97;;;10.68;100.00
76627;BME280;65519;53.230;10.390;2024-03-22T10:51:13;100915.88;;;10.67;100.00
76627;BME280;65519;53.230;10.390;2024-03-22T10:53:41;100916.44;;;10.69;100.00
76627;BME280;65519;53.230;10.390;2024-03-22T10:56:07;100906.88;;;10.71;100.00
76627;BME280;65519;53.230;10.390;2024-03-22T10:58:39;100906.88;;;10.71;100.00
76627;BME280;65519;53.230;10.390;2024-03-22T11:01:04;100899.25;;;10.73;100.00
76627;BME280;65519;53.230;10.390;2024-03-22T11:03:30;100895.72;;;10.73;100.00
76627;BME280;65519;53.230;10.390;2024-03-22T11:05:57;100921.38;;;10.77;100.00
76627;BME280;65519;53.230;10.390;2024-03-22T11:08:27;100898.69;;;10.71;100.00
76627;BME280;65519;53.230;10.390;2024-03-22T11:10:53;100909.09;;;10.74;100.00
76627;BME280;65519;53.230;10.390;2024-03-22T11:13:20;100902.25;;;10.72;100.00
76627;BME280;65519;53.230;10.390;2024-03-22T11:15:50;100900.09;;;10.74;100.00
76627;BME280;65519;53.230;10.390;2024-03-22T11:18:16;100887.78;;;10.66;100.00
76627;BME280;65519;53.230;10.390;2024-03-22T11:20:42;100892.72;;;10.69;100.00
76627;BME280;65519;53.230;10.390;2024-03-22T11:23:09;100893.22;;;10.66;100.00
76627;BME280;65519;53.230;10.390;2024-03-22T11:25:34;100900.34;;;10.67;100.00
76627;BME280;65519;53.230;10.390;2024-03-22T11:28:00;100900.34;;;10.67;100.00
76627;BME280;65519;53.230;10.390;2024-03-22T11:30:31;100899.25;;;10.68;100.00
76627;BME280;65519;53.230;10.390;2024-03-22T11:32:56;100894.34;;;10.70;100.00
76627;BME280;65519;53.230;10.390;2024-03-22T11:35:22;100895.97;;;10.71;100.00
76627;BME280;65519;53.230;10.390;2024-03-22T11:37:49;100900.91;;;10.69;100.00
76627;BME280;65519;53.230;10.390;2024-03-22T11:40:16;100904.69;;;10.68;100.00
76627;BME280;65519;53.230;10.390;2024-03-22T11:42:44;100897.91;;;10.71;100.00
76627;BME280;65519;53.230;10.390;2024-03-22T11:45:12;100903.63;;;10.69;100.00
76627;BME280;65519;53.230;10.390;2024-03-22T11:47:39;100901.44;;;10.71;100.00
76627;BME280;65519;53.230;10.390;2024-03-22T11:50:05;100882.91;;;10.73;100.00
76627;BME280;65519;53.230;10.390;2024-03-22T11:52:30;100884.31;;;10.81;100.00
76627;BME280;65519;53.230;10.390;2024-03-22T11:54:56;100883.78;;;10.84;100.00
76627;BME280;65519;53.230;10.390;2024-03-22T11:57:22;100875.13;;;11.02;100.00
76627;BME280;65519;53.230;10.390;2024-03-22T11:59:48;100882.47;;;10.96;100.00
76627;BME280;65519;53.230;10.390;2024-03-22T12:02:14;100878.78;;;11.43;100.00
76627;BME280;65519;53.230;10.390;2024-03-22T12:04:47;100874.06;;;11.08;100.00
76627;BME280;65519;53.230;10.390;2024-03-22T12:07:16;100875.69;;;11.09;100.00
76627;BME280;65519;53.230;10.390;2024-03-22T12:09:42;100873.22;;;11.08;100.00
76627;BME280;65519;53.230;10.390;2024-03-22T12:12:09;100860.66;;;11.02;100.00
76627;BME280;65519;53.230;10.390;2024-03-22T12:14:35;100861.47;;;10.97;100.00
76627;BME280;65519;53.230;10.390;2024-03-22T12:17:04;100860.09;;;10.94;100.00
76627;BME280;65519;53.230;10.390;2024-03-22T12:19:30;100857.09;;;10.91;100.00
76627;BME280;65519;53.230;10.390;2024-03-22T12:21:55;100850.25;;;10.93;100.00
76627;BME280;65519;53.230;10.390;2024-03-22T12:24:21;100855.19;;;10.96;100.00
76627;BME280;65519;53.230;10.390;2024-03-22T12:26:47;100850.28;;;10.98;100.00
76627;BME280;65519;53.230;10.390;2024-03-22T12:29:16;100846.75;;;10.98;100.00